createdAt,value
2018-07-13T00:00:47.275Z,96.94
2018-07-13T00:01:47.150Z,97.89
2018-07-13T00:02:47.028Z,97.99
2018-07-13T00:03:46.906Z,97.89
2018-07-13T00:04:46.783Z,97.22
2018-07-13T00:05:46.661Z,97.51
2018-07-13T00:06:46.536Z,98.18
2018-07-13T00:07:46.420Z,98.18
2018-07-13T00:08:46.290Z,98.18
2018-07-13T00:09:46.170Z,98.56
2018-07-13T00:10:46.044Z,98.47
2018-07-13T00:11:45.924Z,99.13
2018-07-13T00:12:45.799Z,98.85
2018-07-13T00:13:45.676Z,99.13
2018-07-13T00:14:45.551Z,99.08
2018-07-13T00:15:45.428Z,99.61
2018-07-13T00:16:45.308Z,99.27
2018-07-13T00:17:45.182Z,99.56
2018-07-13T00:18:45.060Z,99.99
2018-07-13T00:19:44.935Z,99.27
2018-07-13T00:20:44.813Z,99.27
2018-07-13T00:21:44.690Z,99.46
2018-07-13T00:22:44.566Z,99.56
2018-07-13T00:23:44.443Z,99.56
2018-07-13T00:24:44.321Z,99.04
2018-07-13T00:25:44.194Z,99.52
2018-07-13T00:26:44.075Z,99.66
2018-07-13T00:27:43.952Z,99.56
2018-07-13T00:28:43.827Z,99.99
2018-07-13T00:29:43.701Z,99.95
2018-07-13T00:30:43.579Z,99.27
2018-07-13T00:31:43.457Z,99.99
2018-07-13T00:32:43.331Z,99.99
2018-07-13T00:33:43.209Z,99.99
2018-07-13T00:34:43.084Z,99.99
2018-07-13T00:35:42.961Z,99.99
2018-07-13T00:36:42.840Z,99.99
2018-07-13T00:37:42.719Z,99.46
2018-07-13T00:38:42.593Z,99.85
2018-07-13T00:39:42.474Z,99.99
2018-07-13T00:40:42.344Z,99.99
2018-07-13T00:41:42.220Z,99.99
2018-07-13T00:42:42.097Z,99.99
2018-07-13T00:43:41.974Z,99.99
2018-07-13T00:44:41.850Z,99.95
2018-07-13T00:45:41.725Z,99.99
2018-07-13T00:46:41.602Z,99.99
2018-07-13T00:47:41.479Z,99.99
2018-07-13T00:48:41.356Z,99.95
2018-07-13T00:49:41.232Z,99.99
2018-07-13T00:50:41.108Z,99.99
2018-07-13T00:51:40.989Z,99.99
2018-07-13T00:52:40.860Z,99.99
2018-07-13T00:53:40.736Z,99.99
2018-07-13T00:54:40.615Z,99.99
2018-07-13T00:55:40.492Z,99.99
2018-07-13T00:56:40.367Z,99.99
2018-07-13T00:57:40.243Z,99.99
2018-07-13T00:58:40.121Z,99.99
2018-07-13T00:59:40.000Z,99.99
2018-07-13T01:00:39.873Z,99.99
2018-07-13T01:01:39.748Z,99.99
2018-07-13T01:02:39.626Z,99.99
2018-07-13T01:03:39.502Z,99.99
2018-07-13T01:04:39.381Z,99.99
2018-07-13T01:05:39.255Z,99.99
2018-07-13T01:06:39.132Z,99.99
2018-07-13T01:07:39.008Z,99.99
2018-07-13T01:08:38.885Z,99.99
2018-07-13T01:09:38.762Z,99.99
2018-07-13T01:10:38.640Z,99.99
2018-07-13T01:11:38.513Z,99.99
2018-07-13T01:12:38.390Z,99.99
2018-07-13T01:13:38.266Z,99.99
2018-07-13T01:14:38.142Z,99.99
2018-07-13T01:15:38.019Z,99.99
2018-07-13T01:16:37.896Z,99.99
2018-07-13T01:17:37.770Z,99.99
2018-07-13T01:18:37.652Z,99.99
2018-07-13T01:19:37.525Z,99.99
2018-07-13T01:20:37.398Z,99.99
2018-07-13T01:21:37.273Z,99.99
2018-07-13T01:22:37.149Z,99.99
2018-07-13T01:23:37.026Z,99.99
2018-07-13T01:24:36.904Z,99.99
2018-07-13T01:25:36.778Z,99.99
2018-07-13T01:26:36.654Z,99.99
2018-07-13T01:27:36.530Z,99.99
2018-07-13T01:28:36.408Z,99.99
2018-07-13T01:29:36.282Z,99.99
2018-07-13T01:30:36.160Z,99.99
2018-07-13T01:31:36.035Z,99.99
2018-07-13T01:32:35.911Z,99.99
2018-07-13T01:33:35.786Z,99.99
2018-07-13T01:34:35.660Z,99.99
2018-07-13T01:35:35.537Z,99.99
2018-07-13T01:36:35.413Z,99.99
2018-07-13T01:37:35.291Z,99.99
2018-07-13T01:38:35.166Z,99.99
2018-07-13T01:39:35.045Z,99.99
2018-07-13T01:40:34.916Z,99.99
2018-07-13T01:41:34.792Z,99.99
2018-07-13T01:42:34.671Z,99.99
2018-07-13T01:43:34.548Z,99.99
2018-07-13T01:44:34.421Z,99.99
2018-07-13T01:45:34.300Z,99.99
2018-07-13T01:46:34.172Z,99.99
2018-07-13T01:47:34.049Z,99.99
2018-07-13T01:48:33.924Z,99.99
2018-07-13T01:49:33.801Z,99.99
2018-07-13T01:50:33.675Z,99.99
2018-07-13T01:51:33.553Z,99.99
2018-07-13T01:52:33.430Z,99.99
2018-07-13T01:53:33.304Z,99.99
2018-07-13T01:54:33.179Z,99.99
2018-07-13T01:55:33.100Z,99.99
2018-07-13T01:56:32.933Z,99.99
2018-07-13T01:57:32.814Z,99.99
2018-07-13T01:58:32.685Z,99.99
2018-07-13T01:59:32.564Z,99.99
2018-07-13T02:00:32.442Z,99.99
2018-07-13T02:01:32.315Z,99.99
2018-07-13T02:02:32.189Z,99.99
2018-07-13T02:03:32.062Z,99.99
2018-07-13T02:04:31.941Z,99.99
2018-07-13T02:05:31.814Z,99.99
2018-07-13T02:06:31.688Z,99.99
2018-07-13T02:07:31.566Z,99.99
2018-07-13T02:08:31.441Z,99.99
2018-07-13T02:09:31.316Z,99.99
2018-07-13T02:10:31.193Z,99.99
2018-07-13T02:11:31.069Z,99.99
2018-07-13T02:12:30.984Z,99.99
2018-07-13T02:13:30.820Z,99.99
2018-07-13T02:14:30.696Z,99.99
2018-07-13T02:15:30.573Z,99.99
2018-07-13T02:16:30.448Z,99.99
2018-07-13T02:17:30.321Z,99.99
2018-07-13T02:18:30.202Z,99.99
2018-07-13T02:19:30.077Z,99.99
2018-07-13T02:20:29.950Z,99.99
2018-07-13T02:21:29.826Z,99.99
2018-07-13T02:22:29.700Z,99.99
2018-07-13T02:23:29.578Z,99.99
2018-07-13T02:24:29.455Z,99.99
2018-07-13T02:25:29.327Z,99.99
2018-07-13T02:26:29.204Z,99.99
2018-07-13T02:27:29.081Z,99.99
2018-07-13T02:28:28.956Z,99.99
2018-07-13T02:29:28.831Z,99.99
2018-07-13T02:30:28.708Z,99.99
2018-07-13T02:31:28.583Z,99.99
2018-07-13T02:32:28.459Z,99.99
2018-07-13T02:33:28.332Z,99.99
2018-07-13T02:34:28.209Z,99.99
2018-07-13T02:35:28.089Z,99.99
2018-07-13T02:36:27.962Z,99.99
2018-07-13T02:37:27.835Z,99.99
2018-07-13T02:38:27.731Z,99.99
2018-07-13T02:39:27.589Z,99.99
2018-07-13T02:40:27.468Z,99.99
2018-07-13T02:41:27.338Z,99.99
2018-07-13T02:42:27.216Z,99.99
2018-07-13T02:43:27.091Z,99.99
2018-07-13T02:44:26.971Z,99.99
2018-07-13T02:45:26.840Z,99.99
2018-07-13T02:46:26.716Z,99.99
2018-07-13T02:47:26.594Z,99.99
2018-07-13T02:48:26.468Z,99.99
2018-07-13T02:49:26.342Z,99.99
2018-07-13T02:50:26.219Z,99.99
2018-07-13T02:51:26.095Z,99.99
2018-07-13T02:52:25.971Z,99.99
2018-07-13T02:53:25.849Z,99.99
2018-07-13T02:54:25.724Z,99.99
2018-07-13T02:55:25.596Z,99.99
2018-07-13T02:56:25.475Z,99.99
2018-07-13T02:57:25.349Z,99.99
2018-07-13T02:58:25.222Z,99.99
2018-07-13T02:59:25.097Z,99.99
2018-07-13T03:00:24.976Z,99.99
2018-07-13T03:01:24.850Z,99.99
2018-07-13T03:02:24.727Z,99.99
2018-07-13T03:03:24.603Z,99.99
2018-07-13T03:04:24.480Z,99.99
2018-07-13T03:05:24.352Z,99.99
2018-07-13T03:06:24.228Z,99.99
2018-07-13T03:07:24.104Z,99.99
2018-07-13T03:08:23.979Z,99.99
2018-07-13T03:09:23.852Z,99.99
2018-07-13T03:10:23.733Z,99.99
2018-07-13T03:11:23.603Z,99.99
2018-07-13T03:12:23.482Z,99.99
2018-07-13T03:13:23.354Z,99.99
2018-07-13T03:14:23.233Z,99.99
2018-07-13T03:15:23.107Z,99.99
2018-07-13T03:16:22.983Z,99.99
2018-07-13T03:17:22.854Z,99.99
2018-07-13T03:18:22.732Z,99.99
2018-07-13T03:19:22.607Z,99.99
2018-07-13T03:20:22.482Z,99.99
2018-07-13T03:21:22.359Z,99.99
2018-07-13T03:22:22.233Z,99.99
2018-07-13T03:23:22.112Z,99.99
2018-07-13T03:24:21.985Z,99.99
2018-07-13T03:25:21.860Z,99.99
2018-07-13T03:26:21.737Z,99.99
2018-07-13T03:27:21.611Z,99.99
2018-07-13T03:28:21.489Z,99.99
2018-07-13T03:29:21.362Z,99.99
2018-07-13T03:30:21.239Z,99.99
2018-07-13T03:31:21.113Z,99.99
2018-07-13T03:32:20.987Z,99.99
2018-07-13T03:33:20.864Z,99.99
2018-07-13T03:34:20.740Z,99.99
2018-07-13T03:35:20.615Z,99.99
2018-07-13T03:36:20.502Z,99.99
2018-07-13T03:37:20.370Z,99.99
2018-07-13T03:38:20.299Z,99.99
2018-07-13T03:39:20.116Z,99.99
2018-07-13T03:40:19.995Z,99.99
2018-07-13T03:41:19.867Z,99.99
2018-07-13T03:42:19.743Z,99.99
2018-07-13T03:43:19.618Z,99.99
2018-07-13T03:44:19.494Z,99.99
2018-07-13T03:45:19.368Z,99.99
2018-07-13T03:46:19.247Z,99.99
2018-07-13T03:47:19.123Z,99.99
2018-07-13T03:48:19.069Z,99.99
2018-07-13T03:49:18.871Z,99.99
2018-07-13T03:50:18.747Z,99.99
2018-07-13T03:51:18.622Z,99.99
2018-07-13T03:52:18.495Z,99.99
2018-07-13T03:53:18.372Z,99.99
2018-07-13T03:54:18.308Z,99.99
2018-07-13T03:55:18.122Z,99.99
2018-07-13T03:56:18.006Z,99.99
2018-07-13T03:57:17.888Z,99.99
2018-07-13T03:58:17.749Z,99.99
2018-07-13T03:59:17.629Z,99.99
2018-07-13T04:00:17.505Z,99.99
2018-07-13T04:01:17.375Z,99.99
2018-07-13T04:02:17.250Z,99.99
2018-07-13T04:03:17.132Z,99.99
2018-07-13T04:04:17.003Z,99.99
2018-07-13T04:05:16.876Z,99.99
2018-07-13T04:06:16.756Z,99.99
2018-07-13T04:07:16.631Z,99.99
2018-07-13T04:08:16.514Z,99.99
2018-07-13T04:09:16.379Z,99.99
2018-07-13T04:10:16.255Z,99.99
2018-07-13T04:11:16.129Z,99.99
2018-07-13T04:12:16.007Z,99.99
2018-07-13T04:13:15.885Z,99.99
2018-07-13T04:14:15.758Z,99.99
2018-07-13T04:15:15.632Z,99.99
2018-07-13T04:16:15.509Z,99.99
2018-07-13T04:17:15.386Z,99.99
2018-07-13T04:18:15.260Z,99.99
2018-07-13T04:19:15.137Z,99.99
2018-07-13T04:20:15.012Z,99.99
2018-07-13T04:21:14.888Z,99.99
2018-07-13T04:22:14.761Z,99.99
2018-07-13T04:23:14.636Z,99.99
2018-07-13T04:24:14.514Z,99.99
2018-07-13T04:25:14.389Z,99.99
2018-07-13T04:26:14.265Z,99.99
2018-07-13T04:27:14.142Z,99.99
2018-07-13T04:28:14.016Z,99.99
2018-07-13T04:29:13.892Z,99.99
2018-07-13T04:30:13.765Z,99.99
2018-07-13T04:31:13.644Z,99.99
2018-07-13T04:32:13.521Z,99.99
2018-07-13T04:33:13.392Z,99.99
2018-07-13T04:34:13.332Z,99.99
2018-07-13T04:35:13.141Z,99.99
2018-07-13T04:36:13.020Z,99.99
2018-07-13T04:37:12.895Z,99.99
2018-07-13T04:38:12.776Z,99.99
2018-07-13T04:39:12.645Z,99.99
2018-07-13T04:40:12.521Z,99.99
2018-07-13T04:41:12.527Z,99.99
2018-07-13T04:42:12.271Z,99.99
2018-07-13T04:43:12.148Z,99.99
2018-07-13T04:44:12.023Z,99.99
2018-07-13T04:45:11.901Z,99.99
2018-07-13T04:46:11.774Z,99.99
2018-07-13T04:47:11.652Z,99.99
2018-07-13T04:48:11.526Z,99.99
2018-07-13T04:49:11.403Z,99.99
2018-07-13T04:50:11.302Z,99.99
2018-07-13T04:51:11.155Z,99.99
2018-07-13T04:52:11.034Z,99.99
2018-07-13T04:53:10.916Z,99.99
2018-07-13T04:54:10.789Z,99.99
2018-07-13T04:55:10.661Z,99.99
2018-07-13T04:56:10.541Z,99.99
2018-07-13T04:57:10.411Z,99.99
2018-07-13T04:58:10.288Z,99.99
2018-07-13T04:59:10.165Z,99.99
2018-07-13T05:00:10.042Z,99.99
2018-07-13T05:01:09.923Z,99.99
2018-07-13T05:02:09.792Z,99.99
2018-07-13T05:03:09.674Z,99.99
2018-07-13T05:04:09.550Z,99.99
2018-07-13T05:05:09.423Z,99.71
2018-07-13T05:06:09.339Z,99.52
2018-07-13T05:07:09.178Z,99.71
2018-07-13T05:08:09.058Z,99.80
2018-07-13T05:09:08.930Z,99.75
2018-07-13T05:10:08.808Z,99.95
2018-07-13T05:11:08.682Z,99.75
2018-07-13T05:12:08.559Z,99.18
2018-07-13T05:13:08.440Z,99.80
2018-07-13T05:14:08.315Z,99.99
2018-07-13T05:15:08.191Z,99.99
2018-07-13T05:16:08.066Z,98.75
2018-07-13T05:17:07.945Z,98.03
2018-07-13T05:18:07.820Z,98.03
2018-07-13T05:19:07.698Z,99.33
2018-07-13T05:20:07.577Z,97.13
2018-07-13T05:21:07.451Z,96.17
2018-07-13T05:22:07.326Z,93.79
2018-07-13T05:23:07.205Z,94.93
2018-07-13T05:24:07.082Z,97.23
2018-07-13T05:25:06.957Z,96.27
2018-07-13T05:26:06.835Z,94.55
2018-07-13T05:27:06.712Z,94.31
2018-07-13T05:28:06.590Z,93.74
2018-07-13T05:29:06.468Z,94.41
2018-07-13T05:30:06.342Z,93.74
2018-07-13T05:31:06.220Z,94.12
2018-07-13T05:32:06.096Z,95.07
2018-07-13T05:33:05.982Z,93.26
2018-07-13T05:34:05.852Z,92.30
2018-07-13T05:35:05.733Z,91.54
2018-07-13T05:36:05.606Z,91.11
2018-07-13T05:37:05.483Z,89.87
2018-07-13T05:38:05.360Z,90.92
2018-07-13T05:39:05.236Z,90.16
2018-07-13T05:40:05.118Z,88.62
2018-07-13T05:41:04.994Z,88.81
2018-07-13T05:42:04.872Z,89.10
2018-07-13T05:43:04.748Z,88.05
2018-07-13T05:44:04.625Z,88.15
2018-07-13T05:45:04.504Z,88.09
2018-07-13T05:46:04.381Z,86.57
2018-07-13T05:47:04.260Z,86.08
2018-07-13T05:48:04.138Z,87.43
2018-07-13T05:49:04.014Z,85.99
2018-07-13T05:50:03.890Z,85.41
2018-07-13T05:51:03.772Z,85.13
2018-07-13T05:52:03.648Z,84.84
2018-07-13T05:53:03.526Z,85.41
2018-07-13T05:54:03.403Z,85.80
2018-07-13T05:55:03.281Z,84.17
2018-07-13T05:56:03.162Z,81.40
2018-07-13T05:57:03.034Z,82.93
2018-07-13T05:58:02.915Z,83.03
2018-07-13T05:59:02.793Z,81.78
2018-07-13T06:00:02.670Z,82.26
2018-07-13T06:01:02.547Z,82.64
2018-07-13T06:02:02.425Z,80.06
2018-07-13T06:03:02.304Z,80.92
2018-07-13T06:04:02.294Z,83.40
2018-07-13T06:05:02.059Z,80.92
2018-07-13T06:06:01.941Z,82.74
2018-07-13T06:07:01.818Z,81.82
2018-07-13T06:08:01.693Z,79.24
2018-07-13T06:09:01.573Z,80.67
2018-07-13T06:10:01.452Z,83.50
2018-07-13T06:11:01.330Z,84.27
2018-07-13T06:12:01.209Z,82.59
2018-07-13T06:13:01.085Z,78.86
2018-07-13T06:14:00.966Z,78.22
2018-07-13T06:15:00.899Z,79.57
2018-07-13T06:16:00.721Z,78.13
2018-07-13T06:17:00.599Z,77.08
2018-07-13T06:18:00.482Z,75.73
2018-07-13T06:19:00.359Z,75.73
2018-07-13T06:20:00.236Z,75.68
2018-07-13T06:21:00.114Z,76.06
2018-07-13T06:21:59.996Z,75.96
2018-07-13T06:22:59.870Z,75.20
2018-07-13T06:23:59.751Z,74.52
2018-07-13T06:24:59.627Z,75.48
2018-07-13T06:25:59.507Z,76.44
2018-07-13T06:26:59.386Z,74.77
2018-07-13T06:27:59.264Z,75.54
2018-07-13T06:28:59.143Z,75.39
2018-07-13T06:29:59.020Z,75.20
2018-07-13T06:30:58.901Z,74.49
2018-07-13T06:31:58.779Z,74.40
2018-07-13T06:32:58.654Z,78.17
2018-07-13T06:33:58.540Z,77.40
2018-07-13T06:34:58.414Z,77.02
2018-07-13T06:35:58.293Z,75.77
2018-07-13T06:36:58.169Z,77.69
2018-07-13T06:37:58.052Z,75.58
2018-07-13T06:38:57.929Z,75.10
2018-07-13T06:39:57.807Z,75.01
2018-07-13T06:40:57.686Z,74.82
2018-07-13T06:41:57.566Z,74.72
2018-07-13T06:42:57.446Z,75.01
2018-07-13T06:43:57.324Z,74.62
2018-07-13T06:44:57.205Z,74.33
2018-07-13T06:45:57.079Z,75.23
2018-07-13T06:46:56.960Z,74.76
2018-07-13T06:47:56.839Z,74.76
2018-07-13T06:48:56.719Z,73.90
2018-07-13T06:49:56.597Z,73.03
2018-07-13T06:50:56.476Z,73.22
2018-07-13T06:51:56.359Z,74.05
2018-07-13T06:52:56.234Z,75.68
2018-07-13T06:53:56.117Z,75.14
2018-07-13T06:54:55.994Z,74.76
2018-07-13T06:55:55.885Z,75.75
2018-07-13T06:56:55.808Z,72.11
2018-07-13T06:57:55.631Z,73.45
2018-07-13T06:58:55.507Z,73.45
2018-07-13T06:59:55.388Z,72.11
2018-07-13T07:00:55.271Z,72.17
2018-07-13T07:01:55.146Z,73.70
2018-07-13T07:02:55.026Z,74.47
2018-07-13T07:03:54.904Z,75.08
2018-07-13T07:04:54.785Z,73.16
2018-07-13T07:05:54.664Z,74.60
2018-07-13T07:06:54.544Z,72.88
2018-07-13T07:07:54.421Z,72.59
2018-07-13T07:08:54.304Z,72.78
2018-07-13T07:09:54.179Z,71.95
2018-07-13T07:10:54.060Z,70.76
2018-07-13T07:11:53.940Z,71.57
2018-07-13T07:12:53.818Z,71.09
2018-07-13T07:13:53.699Z,70.42
2018-07-13T07:14:53.578Z,70.42
2018-07-13T07:15:53.460Z,70.38
2018-07-13T07:16:53.335Z,72.43
2018-07-13T07:17:53.273Z,71.86
2018-07-13T07:18:53.095Z,72.33
2018-07-13T07:19:52.979Z,70.23
2018-07-13T07:20:52.854Z,70.51
2018-07-13T07:21:52.734Z,71.28
2018-07-13T07:22:52.613Z,72.63
2018-07-13T07:23:52.494Z,70.42
2018-07-13T07:24:52.372Z,71.28
2018-07-13T07:25:52.253Z,71.19
2018-07-13T07:26:52.132Z,71.51
2018-07-13T07:27:52.013Z,70.64
2018-07-13T07:28:51.892Z,69.97
2018-07-13T07:29:51.774Z,70.42
2018-07-13T07:30:51.651Z,70.03
2018-07-13T07:31:51.535Z,70.03
2018-07-13T07:32:51.410Z,70.42
2018-07-13T07:33:51.291Z,70.90
2018-07-13T07:34:51.172Z,70.84
2018-07-13T07:35:51.052Z,69.49
2018-07-13T07:36:50.928Z,69.49
2018-07-13T07:37:50.812Z,70.93
2018-07-13T07:38:50.690Z,70.07
2018-07-13T07:39:50.568Z,69.72
2018-07-13T07:40:50.449Z,68.95
2018-07-13T07:41:50.327Z,68.08
2018-07-13T07:42:50.210Z,67.35
2018-07-13T07:43:50.091Z,66.20
2018-07-13T07:44:49.969Z,66.39
2018-07-13T07:45:49.851Z,65.81
2018-07-13T07:46:49.731Z,65.08
2018-07-13T07:47:49.614Z,65.75
2018-07-13T07:48:49.491Z,65.08
2018-07-13T07:49:49.370Z,66.04
2018-07-13T07:50:49.256Z,65.75
2018-07-13T07:51:49.132Z,64.72
2018-07-13T07:52:49.015Z,66.55
2018-07-13T07:53:48.892Z,67.13
2018-07-13T07:54:48.773Z,66.64
2018-07-13T07:55:48.655Z,67.13
2018-07-13T07:56:48.535Z,65.46
2018-07-13T07:57:48.415Z,67.13
2018-07-13T07:58:48.301Z,66.84
2018-07-13T07:59:48.178Z,67.13
2018-07-13T08:00:48.057Z,67.16
2018-07-13T08:01:48.006Z,66.58
2018-07-13T08:02:47.874Z,66.04
2018-07-13T08:03:47.701Z,64.37
2018-07-13T08:04:47.579Z,65.91
2018-07-13T08:05:47.466Z,64.56
2018-07-13T08:06:47.515Z,64.76
2018-07-13T08:07:47.224Z,65.05
2018-07-13T08:08:47.102Z,64.85
2018-07-13T08:09:46.984Z,64.76
2018-07-13T08:10:46.863Z,65.33
2018-07-13T08:11:46.745Z,64.85
2018-07-13T08:12:46.623Z,65.66
2018-07-13T08:13:46.517Z,65.17
2018-07-13T08:14:46.387Z,64.60
2018-07-13T08:15:46.268Z,63.54
2018-07-13T08:16:46.148Z,64.34
2018-07-13T08:17:46.028Z,62.41
2018-07-13T08:18:45.908Z,63.28
2018-07-13T08:19:45.792Z,62.71
2018-07-13T08:20:45.672Z,62.64
2018-07-13T08:21:45.554Z,63.60
2018-07-13T08:22:45.437Z,61.68
2018-07-13T08:23:45.313Z,61.16
2018-07-13T08:24:45.194Z,61.36
2018-07-13T08:25:45.076Z,61.74
2018-07-13T08:26:45.012Z,62.51
2018-07-13T08:27:44.838Z,61.94
2018-07-13T08:28:44.719Z,63.28
2018-07-13T08:29:44.599Z,62.80
2018-07-13T08:30:44.481Z,61.74
2018-07-13T08:31:44.363Z,61.65
2018-07-13T08:32:44.245Z,60.97
2018-07-13T08:33:44.123Z,61.74
2018-07-13T08:34:44.012Z,61.26
2018-07-13T08:35:43.885Z,60.49
2018-07-13T08:36:43.771Z,61.10
2018-07-13T08:37:43.695Z,60.24
2018-07-13T08:38:43.532Z,60.42
2018-07-13T08:39:43.413Z,60.94
2018-07-13T08:40:43.295Z,61.13
2018-07-13T08:41:43.174Z,60.17
2018-07-13T08:42:43.056Z,60.46
2018-07-13T08:43:42.939Z,60.27
2018-07-13T08:44:42.820Z,59.11
2018-07-13T08:45:42.701Z,60.27
2018-07-13T08:46:42.582Z,59.23
2018-07-13T08:47:42.464Z,58.75
2018-07-13T08:48:42.346Z,58.17
2018-07-13T08:49:42.228Z,57.82
2018-07-13T08:50:42.110Z,57.53
2018-07-13T08:51:42.129Z,57.72
2018-07-13T08:52:41.875Z,58.69
2018-07-13T08:53:41.759Z,57.79
2018-07-13T08:54:41.638Z,57.21
2018-07-13T08:55:41.526Z,58.08
2018-07-13T08:56:41.402Z,58.47
2018-07-13T08:57:41.283Z,58.20
2018-07-13T08:58:41.168Z,58.69
2018-07-13T08:59:41.112Z,56.05
2018-07-13T09:00:40.936Z,55.19
2018-07-13T09:01:40.835Z,56.73
2018-07-13T09:02:40.696Z,56.44
2018-07-13T09:03:40.576Z,57.05
2018-07-13T09:04:40.458Z,55.22
2018-07-13T09:05:40.351Z,55.31
2018-07-13T09:06:40.226Z,54.64
2018-07-13T09:07:40.147Z,54.25
2018-07-13T09:08:39.989Z,54.44
2018-07-13T09:09:39.873Z,55.22
2018-07-13T09:10:39.798Z,55.05
2018-07-13T09:11:39.634Z,54.31
2018-07-13T09:12:39.518Z,49.10
2018-07-13T09:13:39.402Z,49.58
2018-07-13T09:14:39.282Z,51.12
2018-07-13T09:15:39.169Z,47.85
2018-07-13T09:16:39.047Z,45.41
2018-07-13T09:17:38.927Z,44.83
2018-07-13T09:18:38.813Z,46.37
2018-07-13T09:19:38.693Z,46.56
2018-07-13T09:20:38.581Z,45.41
2018-07-13T09:21:38.461Z,44.83
2018-07-13T09:22:38.339Z,44.06
2018-07-13T09:23:38.224Z,43.00
2018-07-13T09:24:38.107Z,44.35
2018-07-13T09:25:37.987Z,47.14
2018-07-13T09:26:37.873Z,46.95
2018-07-13T09:27:37.754Z,45.79
2018-07-13T09:28:37.639Z,46.95
2018-07-13T09:29:37.519Z,47.72
2018-07-13T09:30:37.401Z,46.95
2018-07-13T09:31:37.286Z,49.00
2018-07-13T09:32:37.165Z,47.45
2018-07-13T09:33:37.049Z,46.40
2018-07-13T09:34:36.931Z,47.05
2018-07-13T09:35:36.813Z,49.10
2018-07-13T09:36:36.695Z,47.45
2018-07-13T09:37:36.576Z,46.01
2018-07-13T09:38:36.463Z,46.40
2018-07-13T09:39:36.343Z,47.17
2018-07-13T09:40:36.270Z,47.19
2018-07-13T09:41:36.109Z,45.17
2018-07-13T09:42:35.992Z,45.17
2018-07-13T09:43:35.877Z,44.78
2018-07-13T09:44:35.758Z,44.97
2018-07-13T09:45:35.640Z,43.81
2018-07-13T09:46:35.547Z,43.24
2018-07-13T09:47:35.406Z,42.56
2018-07-13T09:48:35.289Z,41.98
2018-07-13T09:49:35.172Z,42.75
2018-07-13T09:50:35.053Z,42.75
2018-07-13T09:51:35.540Z,42.39
2018-07-13T09:52:34.819Z,42.77
2018-07-13T09:53:34.781Z,41.33
2018-07-13T09:54:34.592Z,41.81
2018-07-13T09:55:34.469Z,42.68
2018-07-13T09:56:34.351Z,41.81
2018-07-13T09:57:34.237Z,41.91
2018-07-13T09:58:34.119Z,41.33
2018-07-13T09:59:34.002Z,41.13
2018-07-13T10:00:33.936Z,40.05
2018-07-13T10:01:33.767Z,39.87
2018-07-13T10:02:33.649Z,39.01
2018-07-13T10:03:33.533Z,40.75
2018-07-13T10:04:33.416Z,41.13
2018-07-13T10:05:33.302Z,42.50
2018-07-13T10:06:33.183Z,39.70
2018-07-13T10:07:33.067Z,39.32
2018-07-13T10:08:32.950Z,40.09
2018-07-13T10:09:32.833Z,40.69
2018-07-13T10:10:32.719Z,39.24
2018-07-13T10:11:32.601Z,39.34
2018-07-13T10:12:32.484Z,40.40
2018-07-13T10:13:32.406Z,39.03
2018-07-13T10:14:32.252Z,37.85
2018-07-13T10:15:32.134Z,41.15
2018-07-13T10:16:32.018Z,38.64
2018-07-13T10:17:31.905Z,39.62
2018-07-13T10:18:31.789Z,36.92
2018-07-13T10:19:31.670Z,37.21
2018-07-13T10:20:31.557Z,35.05
2018-07-13T10:21:31.437Z,36.06
2018-07-13T10:22:31.323Z,39.45
2018-07-13T10:23:31.209Z,37.71
2018-07-13T10:24:31.089Z,38.58
2018-07-13T10:25:30.977Z,39.29
2018-07-13T10:26:30.858Z,37.56
2018-07-13T10:27:30.743Z,37.17
2018-07-13T10:28:30.622Z,38.45
2018-07-13T10:29:30.510Z,37.70
2018-07-13T10:30:30.393Z,36.94
2018-07-13T10:31:30.276Z,35.39
2018-07-13T10:32:30.160Z,36.57
2018-07-13T10:33:30.044Z,33.86
2018-07-13T10:34:29.930Z,33.09
2018-07-13T10:35:29.822Z,32.60
2018-07-13T10:36:29.699Z,32.31
2018-07-13T10:37:29.584Z,34.15
2018-07-13T10:38:29.469Z,31.54
2018-07-13T10:39:29.356Z,33.39
2018-07-13T10:40:29.240Z,32.52
2018-07-13T10:41:29.123Z,31.07
2018-07-13T10:42:29.008Z,31.56
2018-07-13T10:43:28.890Z,31.16
2018-07-13T10:44:28.777Z,31.46
2018-07-13T10:45:28.666Z,31.46
2018-07-13T10:46:28.548Z,31.65
2018-07-13T10:47:28.435Z,33.10
2018-07-13T10:48:28.325Z,31.36
2018-07-13T10:49:28.205Z,31.94
2018-07-13T10:50:28.088Z,32.02
2018-07-13T10:51:27.986Z,32.41
2018-07-13T10:52:27.857Z,32.29
2018-07-13T10:53:27.744Z,34.05
2018-07-13T10:54:27.631Z,35.23
2018-07-13T10:55:27.515Z,33.20
2018-07-13T10:56:27.400Z,33.01
2018-07-13T10:57:27.289Z,33.59
2018-07-13T10:58:27.170Z,32.64
2018-07-13T10:59:27.056Z,33.22
2018-07-13T11:00:26.948Z,30.31
2018-07-13T11:01:26.829Z,29.84
2018-07-13T11:02:26.714Z,30.51
2018-07-13T11:03:26.601Z,31.37
2018-07-13T11:04:26.485Z,32.46
2018-07-13T11:05:26.372Z,30.79
2018-07-13T11:06:26.259Z,29.34
2018-07-13T11:07:26.144Z,31.49
2018-07-13T11:08:26.038Z,29.36
2018-07-13T11:09:25.917Z,29.06
2018-07-13T11:10:25.803Z,28.19
2018-07-13T11:11:25.690Z,29.64
2018-07-13T11:12:25.574Z,29.36
2018-07-13T11:13:25.462Z,29.37
2018-07-13T11:14:25.347Z,30.92
2018-07-13T11:15:25.236Z,29.06
2018-07-13T11:16:25.128Z,28.09
2018-07-13T11:17:25.008Z,29.55
2018-07-13T11:18:24.895Z,29.55
2018-07-13T11:19:24.785Z,30.73
2018-07-13T11:20:24.670Z,30.65
2018-07-13T11:21:24.555Z,30.94
2018-07-13T11:22:24.440Z,29.79
2018-07-13T11:23:24.329Z,29.11
2018-07-13T11:24:24.276Z,29.50
2018-07-13T11:25:24.105Z,30.85
2018-07-13T11:26:23.989Z,27.72
2018-07-13T11:27:23.878Z,28.29
2018-07-13T11:28:23.761Z,28.79
2018-07-13T11:29:23.656Z,29.87
2018-07-13T11:30:23.539Z,29.60
2018-07-13T11:31:23.425Z,30.38
2018-07-13T11:32:23.311Z,28.72
2018-07-13T11:33:23.203Z,27.86
2018-07-13T11:34:23.086Z,27.87
2018-07-13T11:35:22.974Z,28.26
2018-07-13T11:36:22.861Z,27.21
2018-07-13T11:37:22.858Z,28.18
2018-07-13T11:38:22.637Z,26.82
2018-07-13T11:39:22.525Z,28.76
2018-07-13T11:40:22.416Z,27.39
2018-07-13T11:41:22.305Z,28.26
2018-07-13T11:42:22.194Z,27.58
2018-07-13T11:43:22.075Z,27.69
2018-07-13T11:44:21.964Z,27.79
2018-07-13T11:45:21.849Z,27.53
2018-07-13T11:46:21.738Z,25.29
2018-07-13T11:47:21.628Z,24.80
2018-07-13T11:48:21.516Z,26.06
2018-07-13T11:49:21.403Z,26.34
2018-07-13T11:50:21.294Z,25.97
2018-07-13T11:51:21.181Z,26.07
2018-07-13T11:52:21.072Z,25.30
2018-07-13T11:53:20.958Z,24.02
2018-07-13T11:54:20.848Z,26.15
2018-07-13T11:55:20.735Z,26.34
2018-07-13T11:56:20.623Z,26.04
2018-07-13T11:57:20.514Z,26.06
2018-07-13T11:58:20.400Z,25.26
2018-07-13T11:59:20.288Z,26.01
2018-07-13T12:00:20.177Z,26.87
2018-07-13T12:01:20.068Z,27.29
2018-07-13T12:02:19.959Z,25.86
2018-07-13T12:03:19.844Z,25.29
2018-07-13T12:04:19.729Z,25.09
2018-07-13T12:05:19.619Z,25.20
2018-07-13T12:06:19.514Z,24.80
2018-07-13T12:07:19.430Z,24.61
2018-07-13T12:08:19.284Z,24.41
2018-07-13T12:09:19.174Z,24.52
2018-07-13T12:10:19.062Z,23.55
2018-07-13T12:11:18.954Z,24.24
2018-07-13T12:12:18.837Z,23.55
2018-07-13T12:13:18.730Z,24.54
2018-07-13T12:14:18.622Z,24.16
2018-07-13T12:15:18.507Z,23.17
2018-07-13T12:16:18.395Z,21.80
2018-07-13T12:17:18.288Z,23.17
2018-07-13T12:18:18.172Z,22.58
2018-07-13T12:19:18.116Z,21.78
2018-07-13T12:20:17.953Z,23.24
2018-07-13T12:21:17.842Z,22.75
2018-07-13T12:22:17.728Z,21.59
2018-07-13T12:23:17.681Z,21.89
2018-07-13T12:24:17.507Z,22.69
2018-07-13T12:25:17.396Z,20.83
2018-07-13T12:26:17.289Z,19.85
2018-07-13T12:27:17.177Z,19.37
2018-07-13T12:28:17.064Z,20.06
2018-07-13T12:29:16.950Z,19.59
2018-07-13T12:30:16.842Z,18.24
2018-07-13T12:31:16.730Z,19.32
2018-07-13T12:32:16.668Z,17.37
2018-07-13T12:33:16.517Z,17.77
2018-07-13T12:34:16.402Z,18.36
2018-07-13T12:35:16.290Z,18.08
2018-07-13T12:36:16.176Z,16.52
2018-07-13T12:37:16.066Z,17.90
2018-07-13T12:38:15.955Z,18.29
2018-07-13T12:39:15.845Z,18.48
2018-07-13T12:40:15.736Z,17.90
2018-07-13T12:41:15.623Z,18.18
2018-07-13T12:42:15.517Z,18.79
2018-07-13T12:43:15.405Z,17.41
2018-07-13T12:44:15.293Z,17.78
2018-07-13T12:45:15.185Z,18.03
2018-07-13T12:46:15.076Z,19.40
2018-07-13T12:47:14.969Z,17.96
2018-07-13T12:48:14.855Z,19.03
2018-07-13T12:49:14.748Z,19.39
2018-07-13T12:50:14.637Z,20.96
2018-07-13T12:51:14.527Z,19.29